createdAt,value
2022-12-18T00:03:21.905Z,5.93
2022-12-18T00:08:27.736Z,6.97
2022-12-18T00:13:33.266Z,7.40
2022-12-18T00:18:39.586Z,9.10
2022-12-18T00:23:46.448Z,7.95
2022-12-18T00:34:00.522Z,5.13
2022-12-18T00:39:08.086Z,10.38
2022-12-18T00:44:14.944Z,8.82
2022-12-18T00:49:21.575Z,9.48
2022-12-18T00:54:28.239Z,6.65
2022-12-18T00:59:34.104Z,5.75
2022-12-18T01:04:40.069Z,5.60
2022-12-18T01:09:45.995Z,7.88
2022-12-18T01:14:51.577Z,6.88
2022-12-18T01:19:57.377Z,7.73
2022-12-18T01:25:03.132Z,6.47
2022-12-18T01:30:09.210Z,7.43
2022-12-18T01:35:14.764Z,7.93
2022-12-18T01:40:20.624Z,4.68
2022-12-18T01:45:28.994Z,7.22
2022-12-18T01:50:34.592Z,6.60
2022-12-18T01:55:55.140Z,7.57
2022-12-18T02:01:01.227Z,7.57
2022-12-18T02:06:13.734Z,10.07
2022-12-18T02:11:32.364Z,9.05
2022-12-18T02:16:56.145Z,8.73
2022-12-18T02:22:12.963Z,6.60
2022-12-18T02:27:19.210Z,8.48
2022-12-18T02:32:28.799Z,9.25
2022-12-18T02:37:34.806Z,9.60
2022-12-18T02:42:43.895Z,6.82
2022-12-18T02:47:53.515Z,9.88
2022-12-18T02:53:07.029Z,6.57
2022-12-18T02:58:16.355Z,9.52
2022-12-18T03:03:28.964Z,5.45
2022-12-18T03:08:37.247Z,7.57
2022-12-18T03:13:47.234Z,8.52
2022-12-18T03:18:56.094Z,5.93
2022-12-18T03:24:03.774Z,8.55
2022-12-18T03:29:41.961Z,8.00
2022-12-18T03:34:52.169Z,7.07
2022-12-18T03:40:00.518Z,5.90
2022-12-18T03:45:13.526Z,7.25
2022-12-18T03:50:31.068Z,8.23
2022-12-18T03:55:38.245Z,8.70
2022-12-18T04:00:46.462Z,6.85
2022-12-18T04:06:30.677Z,9.13
2022-12-18T04:11:39.643Z,5.80
2022-12-18T04:16:45.705Z,7.57
2022-12-18T04:21:57.519Z,9.30
2022-12-18T04:27:03.062Z,8.93
2022-12-18T04:32:13.987Z,5.97
2022-12-18T04:37:22.226Z,7.13
2022-12-18T04:42:29.377Z,15.73
2022-12-18T04:47:35.084Z,9.37
2022-12-18T04:52:41.501Z,7.30
2022-12-18T04:57:47.521Z,9.23
2022-12-18T05:02:53.620Z,12.13
2022-12-18T05:07:59.262Z,12.93
2022-12-18T05:13:05.474Z,8.60
2022-12-18T05:18:11.457Z,9.70
2022-12-18T05:28:23.268Z,13.35
2022-12-18T05:33:30.178Z,7.70
2022-12-18T05:38:36.325Z,9.45
2022-12-18T05:43:53.546Z,7.18
2022-12-18T05:48:59.904Z,13.73
2022-12-18T05:59:11.025Z,12.40
2022-12-18T06:04:17.250Z,12.43
2022-12-18T06:09:23.074Z,7.97
2022-12-18T06:14:28.451Z,6.13
2022-12-18T06:19:34.067Z,7.83
2022-12-18T06:24:39.770Z,9.80
2022-12-18T06:29:46.582Z,7.55
2022-12-18T06:34:52.452Z,11.98
2022-12-18T06:39:59.274Z,11.77
2022-12-18T06:45:04.752Z,7.82
2022-12-18T06:50:10.886Z,7.23
2022-12-18T06:55:16.652Z,8.35
2022-12-18T07:00:22.328Z,10.65
2022-12-18T07:05:28.365Z,10.03
2022-12-18T07:15:42.418Z,9.63
2022-12-18T07:20:49.100Z,8.30
2022-12-18T07:25:54.924Z,12.75
2022-12-18T07:31:03.020Z,12.25
2022-12-18T07:36:10.965Z,10.65
2022-12-18T07:41:17.657Z,12.43
2022-12-18T07:51:29.421Z,12.30
2022-12-18T07:56:35.436Z,12.23
2022-12-18T08:01:41.657Z,12.70
2022-12-18T08:06:48.808Z,10.10
2022-12-18T08:11:54.478Z,12.18
2022-12-18T08:17:00.372Z,10.37
2022-12-18T08:27:28.775Z,10.23
2022-12-18T08:32:35.916Z,11.15
2022-12-18T08:37:41.888Z,10.43
2022-12-18T08:43:06.939Z,10.05
2022-12-18T08:48:16.588Z,12.13
2022-12-18T08:53:25.150Z,13.40
2022-12-18T08:58:30.872Z,11.67
2022-12-18T09:03:37.700Z,12.55
2022-12-18T09:08:44.256Z,12.50
2022-12-18T09:13:50.219Z,16.40
2022-12-18T09:19:01.605Z,14.27
2022-12-18T09:24:08.820Z,12.65
2022-12-18T09:29:14.967Z,16.65
2022-12-18T09:34:24.990Z,16.33
2022-12-18T09:39:30.571Z,15.65
2022-12-18T09:44:48.485Z,15.40
2022-12-18T09:49:57.094Z,18.38
2022-12-18T09:55:18.645Z,21.60
2022-12-18T10:00:25.541Z,17.20
2022-12-18T10:05:54.185Z,18.27
2022-12-18T10:11:25.511Z,17.38
2022-12-18T10:16:31.323Z,24.15
2022-12-18T10:22:00.094Z,19.40
2022-12-18T10:27:19.360Z,22.25
2022-12-18T10:32:30.210Z,20.55
2022-12-18T10:37:35.943Z,22.33
2022-12-18T10:42:42.219Z,23.73
2022-12-18T10:47:52.834Z,21.75
2022-12-18T10:53:06.729Z,21.63
2022-12-18T10:58:27.181Z,20.95
2022-12-18T11:03:40.108Z,22.95
2022-12-18T11:08:46.940Z,25.83
2022-12-18T11:14:02.436Z,26.98
2022-12-18T11:19:21.522Z,25.80
2022-12-18T11:24:28.593Z,27.75
2022-12-18T11:29:46.773Z,24.60
2022-12-18T11:34:59.057Z,25.27
2022-12-18T11:40:15.798Z,25.58
2022-12-18T11:45:27.749Z,27.10
2022-12-18T11:50:37.859Z,26.38
2022-12-18T11:55:47.563Z,28.80
2022-12-18T12:00:56.824Z,29.23
2022-12-18T12:06:05.782Z,29.98
2022-12-18T12:11:34.158Z,34.85
2022-12-18T12:17:12.869Z,34.05
2022-12-18T12:22:27.596Z,30.33
2022-12-18T12:27:40.184Z,31.83
2022-12-18T12:32:58.887Z,30.65
2022-12-18T12:38:30.524Z,29.73
2022-12-18T12:43:50.817Z,35.30
2022-12-18T12:49:00.597Z,36.40
2022-12-18T12:54:15.334Z,42.63
2022-12-18T12:59:38.166Z,43.17
2022-12-18T13:04:48.659Z,42.13
2022-12-18T13:10:12.930Z,44.25
2022-12-18T13:15:24.884Z,44.90
2022-12-18T13:20:36.663Z,44.28
2022-12-18T13:25:43.293Z,46.65
2022-12-18T13:30:53.844Z,46.00
2022-12-18T13:36:13.381Z,42.03
2022-12-18T13:41:19.113Z,42.10
2022-12-18T13:46:32.291Z,43.83
2022-12-18T13:51:39.713Z,39.03
2022-12-18T13:56:50.363Z,36.08
2022-12-18T14:02:00.007Z,35.28
2022-12-18T14:07:19.052Z,36.22
2022-12-18T14:12:45.703Z,34.42
2022-12-18T14:17:54.144Z,33.97
2022-12-18T14:23:00.414Z,35.85
2022-12-18T14:28:10.519Z,33.60
2022-12-18T14:33:17.789Z,33.50
2022-12-18T14:38:29.791Z,31.73
2022-12-18T14:43:37.362Z,32.97
2022-12-18T14:48:44.819Z,31.23
2022-12-18T14:53:55.684Z,30.80
2022-12-18T14:59:07.125Z,29.67
2022-12-18T15:04:34.086Z,31.88
2022-12-18T15:09:44.114Z,32.10
2022-12-18T15:14:50.888Z,33.97
2022-12-18T15:20:06.782Z,39.50
2022-12-18T15:25:35.729Z,41.45
2022-12-18T15:30:44.525Z,40.00
2022-12-18T15:35:56.537Z,41.50
2022-12-18T15:41:02.430Z,41.25
2022-12-18T15:46:09.978Z,43.67
2022-12-18T15:51:22.846Z,43.65
2022-12-18T15:56:46.401Z,42.22
2022-12-18T16:01:57.636Z,42.80
2022-12-18T16:07:14.914Z,43.88
2022-12-18T16:12:24.831Z,44.33
2022-12-18T16:17:34.259Z,42.80
2022-12-18T16:22:41.810Z,46.90
2022-12-18T16:27:48.176Z,44.83
2022-12-18T16:32:58.463Z,46.40
2022-12-18T16:38:04.434Z,43.58
2022-12-18T16:43:13.642Z,47.75
2022-12-18T16:48:19.857Z,47.15
2022-12-18T16:53:31.412Z,47.97
2022-12-18T16:58:49.484Z,46.80
2022-12-18T17:04:14.147Z,47.63
2022-12-18T17:09:31.884Z,48.50
2022-12-18T17:14:40.799Z,49.15
2022-12-18T17:19:46.572Z,49.72
2022-12-18T17:25:02.410Z,49.97
2022-12-18T17:30:08.373Z,47.53
2022-12-18T17:35:16.860Z,50.30
2022-12-18T17:40:23.409Z,52.00
2022-12-18T17:45:32.549Z,51.28
2022-12-18T17:50:41.612Z,60.58
2022-12-18T17:55:47.285Z,58.33
2022-12-18T18:00:55.051Z,62.17
2022-12-18T18:06:04.182Z,63.70
2022-12-18T18:11:37.124Z,64.22
2022-12-18T18:16:47.850Z,63.83
2022-12-18T18:21:54.948Z,64.72
2022-12-18T18:27:03.916Z,70.97
2022-12-18T18:32:10.438Z,70.57
2022-12-18T18:42:21.103Z,62.03
2022-12-18T18:47:27.222Z,56.97
2022-12-18T18:52:32.919Z,57.38
2022-12-18T18:57:39.729Z,54.63
2022-12-18T19:02:44.969Z,54.10
2022-12-18T19:07:50.429Z,51.50
2022-12-18T19:13:14.403Z,46.13
2022-12-18T19:18:20.436Z,47.83
2022-12-18T19:23:26.818Z,45.50
2022-12-18T19:28:33.493Z,42.58
2022-12-18T19:33:43.527Z,45.05
2022-12-18T19:38:49.821Z,42.15
2022-12-18T19:43:55.896Z,42.78
2022-12-18T19:49:04.392Z,41.85
2022-12-18T19:54:13.347Z,42.88
2022-12-18T19:59:22.208Z,41.75
2022-12-18T20:04:27.911Z,42.40
2022-12-18T20:09:33.429Z,39.70
2022-12-18T20:14:39.003Z,40.40
2022-12-18T20:19:45.530Z,41.27
2022-12-18T20:24:54.693Z,42.53
2022-12-18T20:30:00.290Z,40.00
2022-12-18T20:35:05.846Z,43.08
2022-12-18T20:40:12.096Z,53.67
2022-12-18T20:45:23.119Z,67.03
2022-12-18T20:50:28.458Z,53.58
2022-12-18T20:55:34.226Z,49.70
2022-12-18T21:00:39.997Z,44.80
2022-12-18T21:05:45.463Z,44.97
2022-12-18T21:10:50.858Z,44.72
2022-12-18T21:15:56.631Z,44.65
2022-12-18T21:21:02.129Z,41.47
2022-12-18T21:26:21.181Z,41.10
2022-12-18T21:31:28.191Z,37.45
2022-12-18T21:36:34.858Z,42.35
2022-12-18T21:41:58.552Z,42.70
2022-12-18T21:47:13.806Z,36.95
2022-12-18T21:52:31.331Z,39.97
2022-12-18T21:57:38.690Z,40.05
2022-12-18T22:02:44.717Z,31.42
2022-12-18T22:07:50.505Z,37.72
2022-12-18T22:12:56.242Z,34.83
2022-12-18T22:18:01.813Z,35.07
2022-12-18T22:23:07.595Z,36.25
2022-12-18T22:28:31.306Z,33.53
2022-12-18T22:33:37.010Z,40.17
2022-12-18T22:38:42.665Z,36.90
2022-12-18T22:43:48.297Z,39.60
2022-12-18T22:48:54.292Z,36.00
2022-12-18T22:54:00.120Z,36.90
2022-12-18T22:59:06.035Z,48.53
2022-12-18T23:04:11.842Z,32.35
2022-12-18T23:09:19.069Z,36.27
2022-12-18T23:14:24.483Z,44.47
2022-12-18T23:19:30.452Z,42.47
2022-12-18T23:24:36.148Z,53.80
2022-12-18T23:29:42.105Z,60.50
2022-12-18T23:34:48.630Z,48.40
2022-12-18T23:39:54.212Z,51.33
2022-12-18T23:45:00.034Z,53.78
2022-12-18T23:50:07.260Z,54.70
2022-12-18T23:55:13.124Z,51.20
